Time;durP1;ratioP1;P1;durP2;ratioP2;P2;SDS_P1;SDS_P2;PMS_P1;PMS_P2;Temp;Humidity;BMP_temperature;BMP_pressure;BME280_temperature;BME280_humidity;BME280_pressure;Samples;Min_cycle;Max_cycle;Signal;HPM_P1;HPM_P2
2023/10/07 00:00:51;;;;;;;7.17;4.90;;;;;;;;;;5115215;28;20237;-77
2023/10/07 00:03:19;;;;;;;10.43;5.07;;;;;;;;;;5115297;28;20200;-77
2023/10/07 00:05:50;;;;;;;8.60;5.10;;;;;;;;;;5114783;28;20194;-77
2023/10/07 00:08:19;;;;;;;8.57;4.57;;;;;;;;;;5115057;28;20254;-78
2023/10/07 00:10:49;;;;;;;9.93;5.20;;;;;;;;;;5115283;28;20203;-77
2023/10/07 00:13:19;;;;;;;6.83;4.43;;;;;;;;;;5115095;28;20232;-77
2023/10/07 00:15:49;;;;;;;6.00;4.43;;;;;;;;;;5114629;28;20714;-78
2023/10/07 00:18:18;;;;;;;10.00;4.97;;;;;;;;;;5114849;28;20229;-78
2023/10/07 00:20:48;;;;;;;6.13;4.53;;;;;;;;;;5114448;28;20204;-78
2023/10/07 00:23:20;;;;;;;7.17;5.00;;;;;;;;;;5114850;28;20193;-78
2023/10/07 00:25:50;;;;;;;7.67;4.67;;;;;;;;;;5115116;28;20197;-77
2023/10/07 00:28:27;;;;;;;8.77;4.77;;;;;;;;;;5114828;28;20201;-78
2023/10/07 00:30:55;;;;;;;7.37;4.70;;;;;;;;;;5114330;28;20219;-78
2023/10/07 00:33:23;;;;;;;7.03;4.80;;;;;;;;;;5114032;28;20197;-77
2023/10/07 00:35:53;;;;;;;6.27;4.47;;;;;;;;;;5114278;28;20225;-76
2023/10/07 00:38:24;;;;;;;8.13;4.93;;;;;;;;;;5114307;28;20217;-77
2023/10/07 00:40:53;;;;;;;7.40;4.43;;;;;;;;;;5113832;28;20286;-76
2023/10/07 00:43:26;;;;;;;10.23;4.77;;;;;;;;;;5114375;28;20295;-78
2023/10/07 00:46:06;;;;;;;7.73;4.60;;;;;;;;;;5114640;28;20258;-78
2023/10/07 00:48:45;;;;;;;7.97;4.77;;;;;;;;;;5114014;28;20200;-78
2023/10/07 00:51:16;;;;;;;8.97;4.60;;;;;;;;;;5114059;28;20673;-78
2023/10/07 00:54:00;;;;;;;8.43;4.87;;;;;;;;;;5114686;28;20284;-78
2023/10/07 00:56:29;;;;;;;7.30;4.77;;;;;;;;;;5113657;28;20677;-77
2023/10/07 00:59:06;;;;;;;8.50;4.70;;;;;;;;;;5114472;28;20321;-77
2023/10/07 01:01:36;;;;;;;6.80;4.60;;;;;;;;;;5113699;28;20289;-78
2023/10/07 01:04:06;;;;;;;8.93;4.33;;;;;;;;;;5113429;28;20201;-77
2023/10/07 01:06:38;;;;;;;7.60;4.50;;;;;;;;;;5113379;28;20205;-77
2023/10/07 01:09:14;;;;;;;7.83;4.77;;;;;;;;;;5114073;28;20778;-78
2023/10/07 01:11:45;;;;;;;6.43;4.13;;;;;;;;;;5113209;28;20620;-79
2023/10/07 01:14:12;;;;;;;8.47;4.23;;;;;;;;;;5113676;28;20200;-78
2023/10/07 01:16:44;;;;;;;8.10;4.20;;;;;;;;;;5113568;28;20343;-77
2023/10/07 01:19:27;;;;;;;6.30;4.00;;;;;;;;;;5113547;28;20232;-77
2023/10/07 01:21:58;;;;;;;7.97;4.60;;;;;;;;;;5113646;28;20288;-78
2023/10/07 01:27:35;;;;;;;8.00;3.90;;;;;;;;;;5097526;28;20197;-77
2023/10/07 01:30:07;;;;;;;6.27;4.23;;;;;;;;;;5113627;28;20281;-77
2023/10/07 01:32:43;;;;;;;8.27;4.23;;;;;;;;;;5113099;28;20190;-77
2023/10/07 01:35:11;;;;;;;6.10;4.73;;;;;;;;;;5113423;28;20196;-77
2023/10/07 01:37:44;;;;;;;7.37;5.17;;;;;;;;;;5113409;28;20202;-77
2023/10/07 01:40:16;;;;;;;8.90;4.43;;;;;;;;;;5113164;28;20229;-77
2023/10/07 01:42:46;;;;;;;7.77;4.83;;;;;;;;;;5113035;28;20193;-77
2023/10/07 01:45:21;;;;;;;7.73;4.40;;;;;;;;;;5113166;28;20198;-78
2023/10/07 01:47:49;;;;;;;9.63;4.67;;;;;;;;;;5112826;28;20248;-77
2023/10/07 01:50:18;;;;;;;7.60;4.73;;;;;;;;;;5112553;28;20205;-77
2023/10/07 01:52:48;;;;;;;7.43;4.70;;;;;;;;;;5112545;28;20583;-76
2023/10/07 01:55:17;;;;;;;7.10;4.83;;;;;;;;;;5113189;28;20387;-77
2023/10/07 01:57:45;;;;;;;8.43;4.50;;;;;;;;;;5113409;28;20194;-78
2023/10/07 02:00:13;;;;;;;7.80;4.57;;;;;;;;;;5112838;28;20635;-78
2023/10/07 02:02:49;;;;;;;8.53;4.37;;;;;;;;;;5112491;28;20207;-77
2023/10/07 02:05:16;;;;;;;10.17;4.50;;;;;;;;;;5112738;28;20217;-78
2023/10/07 02:07:46;;;;;;;9.23;4.50;;;;;;;;;;5112815;28;20235;-77
2023/10/07 02:10:23;;;;;;;9.13;4.20;;;;;;;;;;5112620;28;20666;-77
2023/10/07 02:12:54;;;;;;;6.97;4.20;;;;;;;;;;5112299;28;20206;-77
2023/10/07 02:15:21;;;;;;;7.37;4.10;;;;;;;;;;5112349;28;20264;-78
2023/10/07 02:17:49;;;;;;;8.60;4.77;;;;;;;;;;5103612;28;20198;-76
2023/10/07 02:20:38;;;;;;;6.77;4.40;;;;;;;;;;5094365;28;20240;-77
2023/10/07 02:23:11;;;;;;;8.83;4.90;;;;;;;;;;5092033;28;20252;-77
2023/10/07 02:25:38;;;;;;;8.70;4.33;;;;;;;;;;5091802;28;20201;-77
2023/10/07 02:28:07;;;;;;;8.77;4.97;;;;;;;;;;5091717;28;20244;-77
2023/10/07 02:30:38;;;;;;;7.03;4.07;;;;;;;;;;5091724;28;20663;-78
2023/10/07 02:33:08;;;;;;;6.03;4.27;;;;;;;;;;5091853;28;20660;-77
2023/10/07 02:35:36;;;;;;;7.83;4.70;;;;;;;;;;5091562;28;20194;-78
2023/10/07 02:38:04;;;;;;;7.77;4.67;;;;;;;;;;5091733;28;20740;-77
2023/10/07 02:40:36;;;;;;;7.10;4.40;;;;;;;;;;5091620;28;20267;-77
2023/10/07 02:43:07;;;;;;;5.67;4.30;;;;;;;;;;5091602;28;20197;-77
2023/10/07 02:45:42;;;;;;;6.10;4.40;;;;;;;;;;5090777;28;20198;-78
2023/10/07 02:48:11;;;;;;;7.83;4.23;;;;;;;;;;5091941;28;20221;-77
2023/10/07 02:50:40;;;;;;;6.93;4.80;;;;;;;;;;5097654;28;20689;-77
2023/10/07 02:53:12;;;;;;;7.37;4.40;;;;;;;;;;5096202;28;20202;-77
2023/10/07 02:55:47;;;;;;;6.63;4.00;;;;;;;;;;5091127;28;20210;-76
2023/10/07 02:58:24;;;;;;;9.90;4.67;;;;;;;;;;5091425;28;20734;-77
2023/10/07 03:00:58;;;;;;;7.53;4.27;;;;;;;;;;5091078;28;20231;-76
2023/10/07 03:03:38;;;;;;;9.40;4.57;;;;;;;;;;5089799;28;20201;-76
2023/10/07 03:06:07;;;;;;;5.90;4.30;;;;;;;;;;5091701;28;20199;-77
2023/10/07 03:08:47;;;;;;;8.80;4.30;;;;;;;;;;5091439;28;20198;-78
2023/10/07 03:11:21;;;;;;;8.80;4.40;;;;;;;;;;5091519;28;20194;-76
2023/10/07 03:13:49;;;;;;;7.53;4.33;;;;;;;;;;5090739;28;20542;-77
2023/10/07 03:16:42;;;;;;;9.83;4.20;;;;;;;;;;5094246;28;20252;-78
2023/10/07 03:19:20;;;;;;;8.27;4.60;;;;;;;;;;5111837;28;20243;-77
2023/10/07 03:22:06;;;;;;;7.93;4.60;;;;;;;;;;5111585;28;20191;-77
2023/10/07 03:24:41;;;;;;;6.53;4.50;;;;;;;;;;5111713;28;20200;-77
2023/10/07 03:27:13;;;;;;;9.43;4.90;;;;;;;;;;5111359;28;20197;-78
2023/10/07 03:29:57;;;;;;;8.10;4.70;;;;;;;;;;5111083;28;20658;-77
2023/10/07 03:32:32;;;;;;;9.33;5.10;;;;;;;;;;5111612;28;20756;-77
2023/10/07 03:34:59;;;;;;;6.33;4.67;;;;;;;;;;5111450;28;20201;-77
2023/10/07 03:37:26;;;;;;;7.37;4.63;;;;;;;;;;5111614;28;20236;-77
2023/10/07 03:39:57;;;;;;;7.93;4.63;;;;;;;;;;5111450;28;20324;-77
2023/10/07 03:42:24;;;;;;;6.07;4.53;;;;;;;;;;5111351;28;20203;-78
2023/10/07 03:44:51;;;;;;;6.67;4.20;;;;;;;;;;5111023;28;20204;-77
2023/10/07 03:47:18;;;;;;;8.00;4.80;;;;;;;;;;5111316;28;20240;-77
2023/10/07 03:49:52;;;;;;;5.43;4.30;;;;;;;;;;5111096;28;20200;-77
2023/10/07 03:52:21;;;;;;;9.03;4.43;;;;;;;;;;5111062;28;20553;-78
2023/10/07 03:54:48;;;;;;;7.53;4.37;;;;;;;;;;5111626;28;20208;-77
2023/10/07 03:57:18;;;;;;;7.80;4.30;;;;;;;;;;5111021;28;20685;-77
2023/10/07 03:59:46;;;;;;;7.63;4.20;;;;;;;;;;5111435;28;20343;-77
2023/10/07 04:02:29;;;;;;;6.07;4.17;;;;;;;;;;5111198;28;20660;-77
2023/10/07 04:05:09;;;;;;;8.17;4.90;;;;;;;;;;5111183;28;20191;-77
2023/10/07 04:07:37;;;;;;;6.70;4.57;;;;;;;;;;5111085;28;20191;-77
2023/10/07 04:10:13;;;;;;;8.70;4.63;;;;;;;;;;5111089;28;20397;-77
2023/10/07 04:12:40;;;;;;;6.30;4.53;;;;;;;;;;5111057;28;20196;-77
2023/10/07 04:15:10;;;;;;;7.77;4.63;;;;;;;;;;5113213;28;20197;-77
2023/10/07 04:17:38;;;;;;;6.73;4.30;;;;;;;;;;5114649;28;20705;-77
2023/10/07 04:20:18;;;;;;;10.30;4.57;;;;;;;;;;5114541;28;20222;-78
2023/10/07 04:22:45;;;;;;;6.30;4.43;;;;;;;;;;5114574;28;20284;-77
2023/10/07 04:25:17;;;;;;;6.93;4.80;;;;;;;;;;5114658;28;20285;-76
2023/10/07 04:27:44;;;;;;;8.67;4.57;;;;;;;;;;5114301;28;20228;-77
2023/10/07 04:30:16;;;;;;;6.30;4.37;;;;;;;;;;5115011;28;20289;-78
2023/10/07 04:32:52;;;;;;;7.30;4.20;;;;;;;;;;5114653;28;20206;-77
2023/10/07 04:35:26;;;;;;;8.40;4.40;;;;;;;;;;5114826;28;20210;-77
2023/10/07 04:37:54;;;;;;;6.37;3.87;;;;;;;;;;5114500;28;20757;-77
2023/10/07 04:45:50;;;;;;;6.40;4.20;;;;;;;;;;5114197;28;20568;-77
2023/10/07 04:48:31;;;;;;;7.40;4.20;;;;;;;;;;5114445;28;20224;-77
2023/10/07 04:51:04;;;;;;;6.93;4.10;;;;;;;;;;5114011;28;20205;-77
2023/10/07 04:53:38;;;;;;;8.77;4.73;;;;;;;;;;5113940;28;20672;-77
2023/10/07 04:56:06;;;;;;;8.00;4.60;;;;;;;;;;5113931;28;20546;-77
2023/10/07 04:58:32;;;;;;;7.60;4.77;;;;;;;;;;5114383;28;20239;-77
2023/10/07 05:01:07;;;;;;;8.47;4.43;;;;;;;;;;5113730;28;20214;-77
2023/10/07 05:03:34;;;;;;;6.10;4.33;;;;;;;;;;5113905;28;20670;-77
2023/10/07 05:06:04;;;;;;;8.90;4.77;;;;;;;;;;5113511;28;20559;-77
2023/10/07 05:08:31;;;;;;;6.93;4.47;;;;;;;;;;5113541;28;20824;-77
2023/10/07 05:11:05;;;;;;;5.17;3.97;;;;;;;;;;5113802;28;20205;-77
2023/10/07 05:13:33;;;;;;;5.83;4.00;;;;;;;;;;5113836;28;20190;-77
2023/10/07 05:16:05;;;;;;;6.33;3.80;;;;;;;;;;5113695;28;20666;-77
2023/10/07 05:18:31;;;;;;;5.70;4.00;;;;;;;;;;5113389;28;20582;-76
2023/10/07 05:20:58;;;;;;;6.80;4.37;;;;;;;;;;5113114;28;20709;-76
2023/10/07 05:23:27;;;;;;;6.37;4.10;;;;;;;;;;5113511;28;20281;-77
2023/10/07 05:25:55;;;;;;;7.33;4.80;;;;;;;;;;5113051;28;20222;-77
2023/10/07 05:28:22;;;;;;;6.73;4.87;;;;;;;;;;5113184;28;20693;-77
2023/10/07 05:30:54;;;;;;;6.00;4.77;;;;;;;;;;5113451;28;20283;-77
2023/10/07 05:33:25;;;;;;;6.90;4.73;;;;;;;;;;5113906;28;20197;-76
2023/10/07 05:35:54;;;;;;;6.37;4.50;;;;;;;;;;5113033;28;20703;-77
2023/10/07 05:38:21;;;;;;;6.80;4.57;;;;;;;;;;5113122;28;20208;-77
2023/10/07 05:40:49;;;;;;;5.73;4.33;;;;;;;;;;5112695;28;20312;-77
2023/10/07 05:43:17;;;;;;;8.83;5.07;;;;;;;;;;5113476;28;20221;-77
2023/10/07 05:45:45;;;;;;;7.27;4.57;;;;;;;;;;5113175;28;20229;-76
2023/10/07 05:48:12;;;;;;;7.03;4.80;;;;;;;;;;5113051;28;20198;-77
2023/10/07 05:50:39;;;;;;;6.03;4.43;;;;;;;;;;5113123;28;20323;-77
2023/10/07 05:53:07;;;;;;;6.70;4.57;;;;;;;;;;5113135;28;20198;-77
2023/10/07 05:55:36;;;;;;;6.73;4.33;;;;;;;;;;5112558;28;20224;-78
2023/10/07 05:58:04;;;;;;;8.13;4.77;;;;;;;;;;5113208;28;20207;-78
2023/10/07 06:00:32;;;;;;;8.30;4.90;;;;;;;;;;5112692;28;20233;-77
2023/10/07 06:03:00;;;;;;;6.13;4.57;;;;;;;;;;5112830;28;20230;-78
2023/10/07 06:05:29;;;;;;;7.47;5.17;;;;;;;;;;5112516;28;20276;-77
2023/10/07 06:07:57;;;;;;;8.33;4.83;;;;;;;;;;5112458;28;20755;-77
2023/10/07 06:10:24;;;;;;;10.03;4.83;;;;;;;;;;5112904;28;20196;-78
2023/10/07 06:12:53;;;;;;;7.77;4.50;;;;;;;;;;5112560;28;20584;-77
2023/10/07 06:15:23;;;;;;;6.00;4.63;;;;;;;;;;5112598;28;20249;-76
2023/10/07 06:17:50;;;;;;;6.87;4.40;;;;;;;;;;5112029;28;20243;-77
2023/10/07 06:20:26;;;;;;;7.20;4.13;;;;;;;;;;5112728;28;20752;-76
2023/10/07 06:22:56;;;;;;;8.93;4.37;;;;;;;;;;5111821;28;20197;-77
2023/10/07 06:25:30;;;;;;;6.13;4.47;;;;;;;;;;5112271;28;20216;-77
2023/10/07 06:27:59;;;;;;;8.27;5.00;;;;;;;;;;5112606;28;20281;-78
2023/10/07 06:30:29;;;;;;;8.53;5.20;;;;;;;;;;5112261;28;20348;-77
2023/10/07 06:33:03;;;;;;;6.50;4.57;;;;;;;;;;5112101;28;20198;-77
2023/10/07 06:35:33;;;;;;;6.73;4.60;;;;;;;;;;5112186;28;20194;-77
2023/10/07 06:38:03;;;;;;;7.90;4.57;;;;;;;;;;5111559;28;20202;-78
2023/10/07 06:40:30;;;;;;;8.93;4.70;;;;;;;;;;5112005;28;20229;-78
2023/10/07 06:42:58;;;;;;;6.87;4.77;;;;;;;;;;5112061;28;20190;-77
2023/10/07 06:45:35;;;;;;;8.20;4.97;;;;;;;;;;5112022;28;20286;-79
2023/10/07 06:48:05;;;;;;;7.93;4.50;;;;;;;;;;5111903;28;20234;-78
2023/10/07 06:50:33;;;;;;;6.37;4.60;;;;;;;;;;5111814;28;20845;-77
2023/10/07 06:53:00;;;;;;;6.93;4.37;;;;;;;;;;5111530;28;20221;-78
2023/10/07 06:55:35;;;;;;;5.60;4.23;;;;;;;;;;5112435;28;20593;-78
2023/10/07 06:58:04;;;;;;;7.30;4.43;;;;;;;;;;5111975;28;20200;-78
2023/10/07 07:00:47;;;;;;;8.77;5.23;;;;;;;;;;5111696;28;20224;-78
2023/10/07 07:03:16;;;;;;;7.67;4.60;;;;;;;;;;5112300;28;20201;-78
2023/10/07 07:05:45;;;;;;;5.80;4.23;;;;;;;;;;5111117;28;20194;-79
2023/10/07 07:08:12;;;;;;;7.23;4.33;;;;;;;;;;5111849;28;20543;-78
2023/10/07 07:10:40;;;;;;;6.97;4.30;;;;;;;;;;5112002;28;20233;-79
2023/10/07 07:13:13;;;;;;;8.23;4.73;;;;;;;;;;5111801;28;20217;-79
2023/10/07 07:15:43;;;;;;;8.00;4.13;;;;;;;;;;5111285;28;20230;-79
2023/10/07 07:18:16;;;;;;;6.77;4.07;;;;;;;;;;5111216;28;20213;-79
2023/10/07 07:21:13;;;;;;;9.20;4.40;;;;;;;;;;5110994;28;20221;-79
2023/10/07 07:23:43;;;;;;;6.80;4.40;;;;;;;;;;5111929;28;20197;-78
2023/10/07 07:26:18;;;;;;;6.67;4.27;;;;;;;;;;5111123;28;20202;-79
2023/10/07 07:28:45;;;;;;;7.20;4.23;;;;;;;;;;5111732;28;20296;-79
2023/10/07 07:31:18;;;;;;;8.20;4.30;;;;;;;;;;5111775;28;20276;-77
2023/10/07 07:33:48;;;;;;;8.23;4.50;;;;;;;;;;5111373;28;20210;-79
2023/10/07 07:36:37;;;;;;;6.50;4.17;;;;;;;;;;5110743;28;20190;-79
2023/10/07 07:39:07;;;;;;;7.47;4.30;;;;;;;;;;5111516;28;20208;-79
2023/10/07 07:41:38;;;;;;;6.50;4.27;;;;;;;;;;5111146;28;20307;-79
2023/10/07 07:44:11;;;;;;;5.97;4.07;;;;;;;;;;5111510;28;20243;-78
2023/10/07 07:46:52;;;;;;;6.68;3.80;;;;;;;;;;5111353;28;20253;-79
2023/10/07 07:49:20;;;;;;;6.82;3.80;;;;;;;;;;5112200;28;20193;-80
2023/10/07 07:51:51;;;;;;;6.53;3.55;;;;;;;;;;5115151;28;20189;-79
2023/10/07 07:54:19;;;;;;;6.97;3.88;;;;;;;;;;5115449;28;20201;-78
2023/10/07 07:56:48;;;;;;;8.35;4.05;;;;;;;;;;5114941;28;20239;-78
2023/10/07 07:59:18;;;;;;;6.57;4.10;;;;;;;;;;5115603;28;20314;-78
2023/10/07 08:01:52;;;;;;;6.55;3.97;;;;;;;;;;5115062;28;20264;-79
2023/10/07 08:04:37;;;;;;;8.40;3.60;;;;;;;;;;5115324;28;20193;-80
2023/10/07 08:07:07;;;;;;;6.28;3.97;;;;;;;;;;5112758;28;20606;-80
2023/10/07 08:09:37;;;;;;;4.97;3.40;;;;;;;;;;5104229;28;20198;-79
2023/10/07 08:12:09;;;;;;;6.32;3.90;;;;;;;;;;5114974;28;20205;-78
2023/10/07 08:14:37;;;;;;;5.88;3.95;;;;;;;;;;5115529;27;20198;-79
2023/10/07 08:17:08;;;;;;;5.78;3.95;;;;;;;;;;5114236;28;20288;-79
2023/10/07 08:19:38;;;;;;;5.15;3.85;;;;;;;;;;5114544;28;20221;-80
2023/10/07 08:22:13;;;;;;;6.80;3.67;;;;;;;;;;5113128;28;20313;-80
2023/10/07 08:24:40;;;;;;;5.95;3.50;;;;;;;;;;5115132;27;20664;-82
2023/10/07 08:30:05;;;;;;;5.95;3.42;;;;;;;;;;5109910;28;20410;-81
2023/10/07 08:32:37;;;;;;;4.97;3.42;;;;;;;;;;5090648;28;20727;-80
2023/10/07 08:35:14;;;;;;;6.68;3.08;;;;;;;;;;5098780;28;20205;-81
2023/10/07 08:37:45;;;;;;;6.78;3.50;;;;;;;;;;5110621;28;20374;-81
2023/10/07 08:40:25;;;;;;;4.32;3.20;;;;;;;;;;5110390;28;20284;-82
2023/10/07 08:42:55;;;;;;;7.00;3.17;;;;;;;;;;5123461;27;20216;-81
2023/10/07 08:45:24;;;;;;;5.93;3.20;;;;;;;;;;5131510;27;20315;-79
2023/10/07 08:47:53;;;;;;;6.07;3.35;;;;;;;;;;5117627;27;20198;-80
2023/10/07 08:50:23;;;;;;;5.63;3.67;;;;;;;;;;5110911;27;20209;-84
2023/10/07 08:52:58;;;;;;;8.27;3.88;;;;;;;;;;5114068;28;20213;-83
2023/10/07 08:55:26;;;;;;;6.00;4.30;;;;;;;;;;5113870;28;20279;-84
2023/10/07 08:57:53;;;;;;;10.93;4.70;;;;;;;;;;5114193;28;20190;-84
2023/10/07 09:00:29;;;;;;;7.75;4.90;;;;;;;;;;5113751;27;20292;-84
2023/10/07 09:02:58;;;;;;;6.50;4.30;;;;;;;;;;5113335;28;20189;-83
2023/10/07 09:05:27;;;;;;;7.63;4.50;;;;;;;;;;5114072;28;20221;-84
2023/10/07 09:07:56;;;;;;;7.57;4.20;;;;;;;;;;5114016;28;20296;-84
2023/10/07 09:10:28;;;;;;;7.72;4.15;;;;;;;;;;5113741;28;20198;-83
2023/10/07 09:12:56;;;;;;;6.70;4.10;;;;;;;;;;5113845;28;20200;-83
2023/10/07 09:15:28;;;;;;;6.50;3.85;;;;;;;;;;5113813;28;20221;-84
2023/10/07 09:18:04;;;;;;;7.75;3.70;;;;;;;;;;5130044;27;20194;-85
2023/10/07 09:20:31;;;;;;;6.50;3.30;;;;;;;;;;5109650;28;20202;-86
2023/10/07 09:23:01;;;;;;;8.60;4.05;;;;;;;;;;5113931;28;20198;-86
2023/10/07 09:25:31;;;;;;;6.13;3.35;;;;;;;;;;5114244;28;20200;-85
2023/10/07 09:27:59;;;;;;;5.03;3.33;;;;;;;;;;5113657;27;20201;-84
2023/10/07 09:30:44;;;;;;;5.68;3.60;;;;;;;;;;5112960;28;20650;-83
2023/10/07 09:33:18;;;;;;;6.05;3.50;;;;;;;;;;5110206;27;20284;-83
2023/10/07 09:35:47;;;;;;;5.97;3.40;;;;;;;;;;5111717;27;20217;-83
2023/10/07 09:38:23;;;;;;;7.35;3.53;;;;;;;;;;5112443;28;20276;-83
2023/10/07 09:41:11;;;;;;;6.07;3.55;;;;;;;;;;5111898;27;20251;-84
2023/10/07 09:43:39;;;;;;;7.28;3.70;;;;;;;;;;5110688;28;20194;-83
2023/10/07 09:46:07;;;;;;;5.63;3.30;;;;;;;;;;5109553;28;20288;-83
2023/10/07 09:48:41;;;;;;;6.05;3.63;;;;;;;;;;5112507;28;20194;-82
2023/10/07 09:51:14;;;;;;;4.85;3.33;;;;;;;;;;5114260;27;20211;-84
2023/10/07 09:53:49;;;;;;;6.55;3.83;;;;;;;;;;5112373;27;20890;-83
2023/10/07 09:56:22;;;;;;;5.47;3.20;;;;;;;;;;5112677;28;20200;-83
2023/10/07 09:58:59;;;;;;;5.90;3.35;;;;;;;;;;5112899;27;20202;-84
2023/10/07 10:01:36;;;;;;;6.10;3.42;;;;;;;;;;5112428;28;20229;-84
2023/10/07 10:04:13;;;;;;;4.88;3.25;;;;;;;;;;5110804;28;20848;-85
2023/10/07 10:06:49;;;;;;;5.68;3.53;;;;;;;;;;5112249;28;20811;-83
2023/10/07 10:09:24;;;;;;;7.57;3.60;;;;;;;;;;5112041;27;20242;-90
2023/10/07 10:12:18;;;;;;;9.98;3.70;;;;;;;;;;5103840;28;20612;-86
2023/10/07 10:15:07;;;;;;;5.72;3.35;;;;;;;;;;5092464;28;20217;-88
2023/10/07 10:17:34;;;;;;;7.75;3.70;;;;;;;;;;5098776;28;20379;-88
2023/10/07 10:20:11;;;;;;;7.80;3.88;;;;;;;;;;5113690;28;20255;-89
2023/10/07 10:22:39;;;;;;;7.10;3.47;;;;;;;;;;5113550;28;20221;-87
2023/10/07 10:25:21;;;;;;;5.45;3.72;;;;;;;;;;5113564;28;20288;-87
2023/10/07 10:27:51;;;;;;;9.98;3.80;;;;;;;;;;5108375;28;20194;-86
2023/10/07 10:30:32;;;;;;;6.63;3.63;;;;;;;;;;5094847;28;20198;-91
2023/10/07 10:33:00;;;;;;;7.75;3.65;;;;;;;;;;5096038;28;20567;-90
2023/10/07 10:35:42;;;;;;;4.95;2.95;;;;;;;;;;5115044;28;20259;-91
2023/10/07 10:38:13;;;;;;;7.95;3.15;;;;;;;;;;5101522;28;20195;-92
2023/10/07 10:40:46;;;;;;;4.70;3.03;;;;;;;;;;5098088;28;20390;-93
2023/10/07 10:46:13;;;;;;;4.43;3.33;;;;;;;;;;5092570;28;20667;-89
2023/10/07 10:48:41;;;;;;;4.65;3.20;;;;;;;;;;5095972;28;20823;-91
2023/10/07 10:51:09;;;;;;;5.60;3.50;;;;;;;;;;5095088;28;20660;-91
2023/10/07 10:53:40;;;;;;;6.88;3.80;;;;;;;;;;5096116;28;20543;-93
2023/10/07 10:56:08;;;;;;;5.72;3.40;;;;;;;;;;5095224;28;20641;-88
2023/10/07 10:58:36;;;;;;;6.32;4.57;;;;;;;;;;5102493;28;20209;-89
2023/10/07 11:01:05;;;;;;;6.05;4.00;;;;;;;;;;5119778;28;20233;-88
2023/10/07 11:03:33;;;;;;;6.10;3.70;;;;;;;;;;5120117;27;20198;-90
2023/10/07 11:06:03;;;;;;;4.70;3.08;;;;;;;;;;5116181;28;21617;-90
2023/10/07 11:08:50;;;;;;;4.85;2.92;;;;;;;;;;5115737;28;20228;-91
2023/10/07 11:11:17;;;;;;;5.03;2.80;;;;;;;;;;5099866;28;20209;-95
2023/10/07 11:13:45;;;;;;;4.43;3.10;;;;;;;;;;5097583;28;20182;-89
2023/10/07 11:16:13;;;;;;;5.80;3.10;;;;;;;;;;5113098;28;20225;-89
2023/10/07 11:18:45;;;;;;;4.40;2.72;;;;;;;;;;5113360;28;20193;-86
2023/10/07 11:21:14;;;;;;;4.40;2.70;;;;;;;;;;5113644;28;20259;-88
2023/10/07 11:23:50;;;;;;;5.07;2.78;;;;;;;;;;5120157;27;20680;-93
2023/10/07 11:26:18;;;;;;;4.97;2.72;;;;;;;;;;5114663;27;20201;-94
2023/10/07 11:28:45;;;;;;;4.13;2.13;;;;;;;;;;5121462;27;20202;-94
2023/10/07 11:31:12;;;;;;;4.15;2.50;;;;;;;;;;5118551;28;20257;-93
2023/10/07 11:33:52;;;;;;;5.03;2.58;;;;;;;;;;5121153;27;20204;-91
2023/10/07 11:36:20;;;;;;;4.15;2.42;;;;;;;;;;5121065;28;20208;-93
2023/10/07 11:38:48;;;;;;;4.97;2.60;;;;;;;;;;5120734;28;20254;-91
2023/10/07 11:41:16;;;;;;;3.60;2.42;;;;;;;;;;5120532;28;20202;-90
2023/10/07 11:43:44;;;;;;;3.30;2.50;;;;;;;;;;5121505;28;20197;-92
2023/10/07 11:46:13;;;;;;;4.15;2.30;;;;;;;;;;5121721;28;20640;-92
2023/10/07 11:48:41;;;;;;;5.00;2.60;;;;;;;;;;5121296;28;20198;-92
2023/10/07 11:51:08;;;;;;;4.55;4.10;;;;;;;;;;5122073;28;20236;-91
2023/10/07 11:53:36;;;;;;;7.13;2.50;;;;;;;;;;5121842;28;20231;-92
2023/10/07 11:56:06;;;;;;;5.47;2.50;;;;;;;;;;5121217;28;20572;-92
2023/10/07 11:58:33;;;;;;;3.75;2.47;;;;;;;;;;5121715;28;20254;-92
2023/10/07 12:01:03;;;;;;;3.55;2.22;;;;;;;;;;5121386;28;20190;-92
2023/10/07 12:03:30;;;;;;;6.35;2.67;;;;;;;;;;5121056;28;20226;-92
2023/10/07 12:05:58;;;;;;;5.10;2.25;;;;;;;;;;5120871;28;20228;-91
2023/10/07 12:08:26;;;;;;;3.47;2.30;;;;;;;;;;5120981;28;20239;-93
2023/10/07 12:10:56;;;;;;;3.63;2.38;;;;;;;;;;5121188;28;20307;-90
2023/10/07 12:13:27;;;;;;;5.90;3.25;;;;;;;;;;5120984;28;20205;-92
2023/10/07 12:15:54;;;;;;;5.43;2.17;;;;;;;;;;5120741;28;20729;-90
2023/10/07 12:18:21;;;;;;;3.83;2.92;;;;;;;;;;5120727;27;20662;-91
2023/10/07 12:20:50;;;;;;;2.80;1.90;;;;;;;;;;5120951;28;20201;-93
2023/10/07 12:23:22;;;;;;;4.43;2.03;;;;;;;;;;5119068;27;20229;-89
2023/10/07 12:25:52;;;;;;;3.45;1.85;;;;;;;;;;5119832;28;20213;-91
2023/10/07 12:28:20;;;;;;;3.30;2.15;;;;;;;;;;5120193;28;20198;-90
2023/10/07 12:30:52;;;;;;;3.25;2.22;;;;;;;;;;5111218;28;20198;-91
2023/10/07 12:33:21;;;;;;;3.38;2.15;;;;;;;;;;5120280;27;20201;-90
2023/10/07 12:35:49;;;;;;;3.47;1.90;;;;;;;;;;5097755;28;20319;-90
2023/10/07 12:38:16;;;;;;;3.28;1.90;;;;;;;;;;5116695;28;20197;-88
2023/10/07 12:40:51;;;;;;;3.03;2.22;;;;;;;;;;5116425;28;20202;-90
2023/10/07 12:43:22;;;;;;;4.82;2.28;;;;;;;;;;5116946;28;20294;-91
2023/10/07 12:46:14;;;;;;;3.33;2.00;;;;;;;;;;5116997;28;20201;-90
2023/10/07 12:52:16;;;;;;;4.20;2.00;;;;;;;;;;5053755;28;20203;-90
2023/10/07 12:54:44;;;;;;;4.93;2.00;;;;;;;;;;5052297;28;20253;-87
2023/10/07 12:57:15;;;;;;;3.20;2.20;;;;;;;;;;5052789;28;20613;-88
2023/10/07 12:59:42;;;;;;;4.18;2.05;;;;;;;;;;5052666;28;20230;-87
2023/10/07 13:02:17;;;;;;;2.55;1.85;;;;;;;;;;5051960;28;20700;-86
2023/10/07 13:07:29;;;;;;;6.50;2.38;;;;;;;;;;5016463;28;20208;-89
2023/10/07 13:09:59;;;;;;;4.07;2.35;;;;;;;;;;5013124;28;20205;-89
2023/10/07 13:12:30;;;;;;;5.03;2.08;;;;;;;;;;5013723;28;20201;-87
2023/10/07 13:14:59;;;;;;;4.32;2.20;;;;;;;;;;5014029;28;20750;-88
2023/10/07 13:17:29;;;;;;;4.05;2.50;;;;;;;;;;5014678;28;20252;-88
2023/10/07 13:20:00;;;;;;;5.18;2.30;;;;;;;;;;4993697;28;20656;-84
2023/10/07 13:22:28;;;;;;;3.88;2.40;;;;;;;;;;4996763;28;20316;-91
2023/10/07 13:25:04;;;;;;;6.55;2.55;;;;;;;;;;5000345;28;20681;-91
2023/10/07 13:27:33;;;;;;;3.47;2.08;;;;;;;;;;5033755;28;20653;-88
2023/10/07 13:30:08;;;;;;;6.97;2.42;;;;;;;;;;5033029;28;20196;-87
2023/10/07 13:32:35;;;;;;;2.90;2.17;;;;;;;;;;5032823;28;20660;-88
2023/10/07 13:35:08;;;;;;;2.70;2.10;;;;;;;;;;5032982;28;20697;-89
2023/10/07 13:37:37;;;;;;;4.28;1.83;;;;;;;;;;5034555;28;20208;-89
2023/10/07 13:40:07;;;;;;;4.25;2.20;;;;;;;;;;5032763;28;20204;-88
2023/10/07 13:45:17;;;;;;;6.55;4.28;;;;;;;;;;5029176;28;20286;-89
2023/10/07 13:48:07;;;;;;;5.95;4.00;;;;;;;;;;5053145;28;20226;-91
2023/10/07 13:56:53;;;;;;;6.63;4.55;;;;;;;;;;5052894;28;20695;-90
2023/10/07 14:03:03;;;;;;;3.92;2.80;;;;;;;;;;5043822;28;20280;-89
2023/10/07 14:05:36;;;;;;;4.30;2.53;;;;;;;;;;5065399;28;20244;-89
2023/10/07 14:08:17;;;;;;;4.35;2.55;;;;;;;;;;5072018;28;20663;-89
2023/10/07 14:10:50;;;;;;;4.22;2.72;;;;;;;;;;5091757;28;20232;-89
2023/10/07 14:13:19;;;;;;;4.60;3.13;;;;;;;;;;5094167;28;20218;-87
2023/10/07 14:15:52;;;;;;;4.95;2.40;;;;;;;;;;5093810;28;20329;-89
2023/10/07 14:18:31;;;;;;;3.97;2.58;;;;;;;;;;5101443;28;20643;-88
2023/10/07 14:21:06;;;;;;;5.70;2.95;;;;;;;;;;5113988;28;20248;-88
2023/10/07 14:23:36;;;;;;;6.05;2.90;;;;;;;;;;5115070;28;20264;-89
2023/10/07 14:26:04;;;;;;;3.83;2.60;;;;;;;;;;5114376;28;20198;-90
2023/10/07 14:28:33;;;;;;;7.07;2.90;;;;;;;;;;5114898;28;20247;-90
2023/10/07 14:31:04;;;;;;;4.50;2.63;;;;;;;;;;5114567;28;20285;-90
2023/10/07 14:33:34;;;;;;;4.22;2.78;;;;;;;;;;5114200;28;20579;-90
2023/10/07 14:36:10;;;;;;;4.65;2.88;;;;;;;;;;5114193;28;20202;-90
2023/10/07 14:38:41;;;;;;;6.15;3.97;;;;;;;;;;5114623;28;20197;-89
2023/10/07 14:44:17;;;;;;;3.78;3.17;;;;;;;;;;5112752;28;20257;-89
2023/10/07 14:46:44;;;;;;;6.82;5.57;;;;;;;;;;5114881;28;20584;-90
2023/10/07 14:49:20;;;;;;;25.85;11.32;;;;;;;;;;5114873;28;20258;-90
2023/10/07 14:51:53;;;;;;;13.98;9.38;;;;;;;;;;5114019;28;20708;-90
2023/10/07 14:54:21;;;;;;;5.95;4.22;;;;;;;;;;5114740;28;20212;-89
2023/10/07 14:56:52;;;;;;;5.72;3.83;;;;;;;;;;5114178;28;20670;-89
2023/10/07 14:59:24;;;;;;;7.10;5.07;;;;;;;;;;5114260;28;20276;-90
2023/10/07 15:02:02;;;;;;;8.07;6.28;;;;;;;;;;5114386;28;20562;-89
2023/10/07 15:04:42;;;;;;;;;;;;;;;;;;;;;
2023/10/07 15:07:10;;;;;;;4.63;2.83;;;;;;;;;;5113750;28;20193;-90
2023/10/07 15:09:40;;;;;;;5.68;3.15;;;;;;;;;;5114272;28;20276;-87
2023/10/07 15:12:17;;;;;;;5.95;2.78;;;;;;;;;;5114362;28;20650;-90
2023/10/07 15:14:53;;;;;;;4.72;3.28;;;;;;;;;;5113984;28;20189;-89
2023/10/07 15:17:21;;;;;;;5.13;3.28;;;;;;;;;;5113440;28;20228;-89
2023/10/07 15:19:59;;;;;;;6.25;3.83;;;;;;;;;;5113364;28;20209;-88
2023/10/07 15:22:28;;;;;;;7.50;5.30;;;;;;;;;;5114058;28;20193;-89
2023/10/07 15:24:59;;;;;;;7.57;6.32;;;;;;;;;;5113987;27;20204;-89
2023/10/07 15:27:28;;;;;;;12.27;9.05;;;;;;;;;;5113988;28;20285;-87
2023/10/07 15:30:04;;;;;;;17.73;11.38;;;;;;;;;;5111251;28;20201;-87
2023/10/07 15:32:33;;;;;;;17.45;11.32;;;;;;;;;;5105337;28;20205;-88
2023/10/07 15:35:01;;;;;;;19.73;13.68;;;;;;;;;;5112057;28;20198;-86
2023/10/07 15:37:28;;;;;;;12.38;7.28;;;;;;;;;;5111547;28;20221;-85
2023/10/07 15:39:59;;;;;;;12.27;5.15;;;;;;;;;;5111856;28;20247;-87
2023/10/07 15:42:27;;;;;;;7.05;4.40;;;;;;;;;;5113170;28;20194;-90
2023/10/07 15:45:22;;;;;;;7.88;4.35;;;;;;;;;;5113374;28;20190;-90